Time;durP1;ratioP1;P1;durP2;ratioP2;P2;SDS_P1;SDS_P2;PMS_P1;PMS_P2;Temp;Humidity;BMP_temperature;BMP_pressure;BME280_temperature;BME280_humidity;BME280_pressure;Samples;Min_cycle;Max_cycle;Signal;HPM_P1;HPM_P2
2021/04/28 00:00:20;;;;;;;4.25;0.73;;;5.90;98.20;;;;;;5027786;28;20053;-77
2021/04/28 00:02:45;;;;;;;1.75;0.80;;;5.90;99.00;;;;;;5026302;28;20066;-77
2021/04/28 00:05:12;;;;;;;4.22;0.65;;;5.90;99.00;;;;;;5026584;28;20042;-77
2021/04/28 00:07:38;;;;;;;2.53;0.68;;;5.80;99.40;;;;;;5026502;28;20030;-77
2021/04/28 00:10:09;;;;;;;1.55;0.60;;;5.80;99.90;;;;;;5026471;28;20136;-77
2021/04/28 00:12:35;;;;;;;4.07;0.80;;;5.60;99.90;;;;;;5026489;28;20038;-78
2021/04/28 00:15:01;;;;;;;2.88;0.80;;;5.60;99.90;;;;;;5026454;28;20100;-77
2021/04/28 00:17:26;;;;;;;3.33;0.98;;;5.60;99.90;;;;;;5010200;28;20026;-77
2021/04/28 00:19:52;;;;;;;3.60;1.40;;;5.60;99.90;;;;;;5026272;28;20026;-77
2021/04/28 00:22:17;;;;;;;2.33;1.13;;;5.50;99.90;;;;;;5026298;28;20467;-77
2021/04/28 00:24:43;;;;;;;1.95;0.75;;;5.50;99.90;;;;;;5026510;28;20056;-77
2021/04/28 00:27:10;;;;;;;5.18;1.13;;;5.50;99.90;;;;;;5026296;28;20022;-77
2021/04/28 00:29:35;;;;;;;2.78;1.35;;;5.40;99.90;;;;;;5025931;28;20393;-77
2021/04/28 00:32:01;;;;;;;3.13;0.82;;;5.40;99.90;;;;;;5026251;28;20053;-77
2021/04/28 00:34:26;;;;;;;2.78;1.00;;;5.30;99.90;;;;;;5037679;28;20040;-77
2021/04/28 00:36:52;;;;;;;2.40;0.90;;;5.30;99.90;;;;;;5045812;28;20029;-77
2021/04/28 00:39:18;;;;;;;5.70;0.80;;;5.20;99.90;;;;;;5045707;28;20087;-76
2021/04/28 00:41:44;;;;;;;1.90;0.80;;;5.20;99.90;;;;;;5047023;28;20029;-77
2021/04/28 00:44:10;;;;;;;2.40;1.05;;;5.20;99.90;;;;;;5032254;28;20165;-77
2021/04/28 00:46:36;;;;;;;2.97;0.93;;;5.10;99.90;;;;;;5027248;28;20514;-77
2021/04/28 00:49:02;;;;;;;2.10;1.02;;;5.10;99.90;;;;;;5025543;28;20026;-77
2021/04/28 00:51:27;;;;;;;3.90;1.05;;;5.10;99.90;;;;;;5026960;28;20056;-77
2021/04/28 00:53:54;;;;;;;2.10;1.00;;;5.10;99.90;;;;;;5025681;28;20026;-77
2021/04/28 00:56:20;;;;;;;3.17;1.30;;;5.10;99.90;;;;;;5009264;28;20037;-76
2021/04/28 00:58:46;;;;;;;2.63;1.02;;;5.10;99.90;;;;;;5025322;28;20475;-77
2021/04/28 01:01:12;;;;;;;3.90;1.27;;;5.00;99.90;;;;;;5025444;28;20120;-78
2021/04/28 01:03:39;;;;;;;4.75;1.73;;;5.20;99.90;;;;;;5025488;28;20052;-77
2021/04/28 01:06:06;;;;;;;2.45;1.08;;;5.10;99.90;;;;;;5025032;28;20048;-77
2021/04/28 01:08:34;;;;;;;3.55;1.40;;;4.90;99.90;;;;;;5026466;28;20090;-76
2021/04/28 01:11:00;;;;;;;3.10;1.10;;;4.80;99.90;;;;;;5009044;28;20026;-77
2021/04/28 01:13:27;;;;;;;2.10;0.82;;;4.80;99.90;;;;;;5025165;28;20030;-77
2021/04/28 01:15:53;;;;;;;3.55;1.25;;;4.80;99.90;;;;;;5025189;28;20101;-77
2021/04/28 01:18:21;;;;;;;2.15;1.15;;;4.70;99.90;;;;;;5024940;28;20034;-77
2021/04/28 01:20:47;;;;;;;2.45;0.88;;;4.60;99.90;;;;;;5025168;28;20119;-76
2021/04/28 01:23:15;;;;;;;3.95;1.45;;;4.60;99.90;;;;;;5026389;28;20036;-76
2021/04/28 01:25:43;;;;;;;4.35;1.25;;;4.60;99.90;;;;;;5008562;28;20048;-76
2021/04/28 01:28:16;;;;;;;5.10;1.27;;;4.60;99.90;;;;;;5008573;28;20049;-77
2021/04/28 01:31:05;;;;;;;3.00;1.10;;;4.60;99.90;;;;;;5008454;28;20040;-77
2021/04/28 01:33:41;;;;;;;1.83;1.00;;;4.50;99.90;;;;;;5028796;28;20117;-76
2021/04/28 01:36:20;;;;;;;2.78;1.83;;;4.50;99.90;;;;;;5044490;28;20075;-77
2021/04/28 01:38:50;;;;;;;3.55;1.25;;;4.40;99.90;;;;;;5028099;28;20036;-77
2021/04/28 01:41:18;;;;;;;2.97;1.33;;;4.50;99.90;;;;;;5044683;28;20117;-76
2021/04/28 01:43:45;;;;;;;4.63;1.70;;;4.40;99.90;;;;;;5034523;28;20022;-77
2021/04/28 01:46:11;;;;;;;5.57;1.23;;;4.50;99.90;;;;;;5025987;28;20296;-77
2021/04/28 01:48:42;;;;;;;3.10;1.10;;;4.50;99.90;;;;;;5024647;28;20045;-78
2021/04/28 01:51:09;;;;;;;2.63;1.10;;;4.40;99.90;;;;;;5024456;28;20041;-79
2021/04/28 01:53:37;;;;;;;2.65;0.90;;;4.40;99.90;;;;;;5026060;28;20026;-78
2021/04/28 01:56:03;;;;;;;5.72;1.45;;;4.40;99.90;;;;;;5025784;28;20026;-79
2021/04/28 01:59:05;;;;;;;3.88;1.30;;;4.40;99.90;;;;;;4964868;29;20047;-78
2021/04/28 02:01:55;;;;;;;4.03;1.27;;;4.30;99.90;;;;;;5020279;28;20044;-77
2021/04/28 02:04:23;;;;;;;4.03;1.20;;;4.30;99.90;;;;;;5008039;28;20049;-78
2021/04/28 02:06:52;;;;;;;3.75;1.20;;;4.30;99.90;;;;;;5054310;23;20040;-76
2021/04/28 02:09:18;;;;;;;3.83;1.23;;;4.20;99.90;;;;;;5071157;28;20038;-76
2021/04/28 02:11:44;;;;;;;2.65;1.30;;;4.20;99.90;;;;;;5070728;28;20115;-77
2021/04/28 02:14:17;;;;;;;3.20;1.23;;;4.20;99.90;;;;;;5088137;28;20031;-76
2021/04/28 02:17:02;;;;;;;2.45;1.05;;;4.20;99.90;;;;;;5090825;28;20027;-76
2021/04/28 02:19:38;;;;;;;2.55;1.08;;;4.30;99.90;;;;;;5086945;28;20076;-76
2021/04/28 02:22:05;;;;;;;3.13;1.02;;;4.20;99.90;;;;;;5081068;28;20111;-77
2021/04/28 02:24:43;;;;;;;2.55;1.17;;;4.20;99.90;;;;;;5067761;28;20047;-76
2021/04/28 02:27:10;;;;;;;3.55;1.25;;;4.20;99.90;;;;;;5068090;28;20376;-76
2021/04/28 02:29:36;;;;;;;2.92;1.33;;;4.20;99.90;;;;;;5084277;28;20037;-76
2021/04/28 02:32:04;;;;;;;4.13;1.20;;;4.10;99.90;;;;;;5086020;28;20024;-76
2021/04/28 02:34:41;;;;;;;2.25;0.90;;;4.10;99.90;;;;;;5089401;28;20039;-77
2021/04/28 02:37:30;;;;;;;4.88;1.42;;;4.10;99.90;;;;;;5073911;28;20027;-76
2021/04/28 02:40:31;;;;;;;3.45;1.25;;;4.10;99.90;;;;;;5043145;28;20136;-77
2021/04/28 02:42:58;;;;;;;3.67;1.08;;;4.10;99.90;;;;;;5091829;28;20028;-76
2021/04/28 02:45:24;;;;;;;2.70;1.40;;;4.00;99.90;;;;;;5087464;28;20050;-76
2021/04/28 02:47:54;;;;;;;3.35;1.20;;;4.10;99.90;;;;;;5087096;28;20511;-76
2021/04/28 02:50:23;;;;;;;3.27;0.83;;;4.00;99.90;;;;;;5087377;28;20036;-76
2021/04/28 02:53:14;;;;;;;4.60;1.98;;;4.00;99.90;;;;;;5087227;28;20050;-76
2021/04/28 02:55:42;;;;;;;3.35;1.38;;;4.20;99.90;;;;;;5087284;28;20031;-77
2021/04/28 02:58:08;;;;;;;4.47;1.52;;;4.10;99.90;;;;;;5087331;28;20027;-77
2021/04/28 03:00:47;;;;;;;5.35;1.25;;;4.00;99.90;;;;;;5102366;28;20028;-76
2021/04/28 03:03:17;;;;;;;3.72;1.63;;;4.00;99.90;;;;;;5087467;28;20059;-77
2021/04/28 03:05:51;;;;;;;3.15;1.02;;;4.00;99.90;;;;;;5087007;28;20059;-76
2021/04/28 03:08:24;;;;;;;5.10;1.15;;;4.00;99.90;;;;;;5086814;28;20047;-76
2021/04/28 03:10:52;;;;;;;2.92;1.25;;;4.00;99.90;;;;;;5087346;28;20020;-76
2021/04/28 03:13:19;;;;;;;2.90;1.70;;;4.00;99.90;;;;;;5103997;28;20024;-77
2021/04/28 03:15:47;;;;;;;3.63;1.33;;;3.90;99.90;;;;;;5087087;28;20032;-76
2021/04/28 03:18:14;;;;;;;3.67;1.40;;;3.90;99.90;;;;;;5103892;28;20487;-76
2021/04/28 03:20:42;;;;;;;3.60;1.52;;;3.90;99.90;;;;;;5086995;28;20032;-77
2021/04/28 03:23:12;;;;;;;4.00;1.45;;;3.90;99.90;;;;;;5106335;28;20028;-76
2021/04/28 03:25:38;;;;;;;3.17;1.20;;;3.90;99.90;;;;;;5090515;28;20491;-76
2021/04/28 03:28:07;;;;;;;3.30;1.25;;;3.90;99.90;;;;;;5090532;28;20492;-76
2021/04/28 03:30:32;;;;;;;3.28;1.60;;;3.80;99.90;;;;;;5073744;28;20054;-77
2021/04/28 03:32:58;;;;;;;3.33;1.60;;;3.80;99.90;;;;;;5090190;28;20088;-76
2021/04/28 03:35:43;;;;;;;2.53;1.00;;;3.80;99.90;;;;;;5108505;28;20064;-76
2021/04/28 03:38:28;;;;;;;2.90;1.50;;;3.70;99.90;;;;;;5108535;28;20077;-76
2021/04/28 03:40:54;;;;;;;4.30;1.20;;;3.60;99.90;;;;;;5090093;28;20039;-77
2021/04/28 03:43:20;;;;;;;4.78;1.30;;;3.60;99.90;;;;;;5086740;28;20024;-77
2021/04/28 03:45:46;;;;;;;2.88;1.58;;;3.50;99.90;;;;;;5088047;28;20082;-77
2021/04/28 03:48:20;;;;;;;3.72;1.50;;;3.50;99.90;;;;;;5069748;28;20040;-77
2021/04/28 03:50:46;;;;;;;5.15;1.20;;;3.50;99.90;;;;;;5086875;28;20032;-77
2021/04/28 03:53:12;;;;;;;3.65;1.25;;;3.60;99.90;;;;;;5086542;28;20028;-77
2021/04/28 03:55:42;;;;;;;3.95;1.77;;;3.60;99.90;;;;;;5070521;28;20063;-78
2021/04/28 03:58:09;;;;;;;3.88;1.38;;;3.50;99.90;;;;;;5069712;28;20515;-77
2021/04/28 04:00:35;;;;;;;3.35;1.38;;;3.50;99.90;;;;;;5070014;28;20021;-79
2021/04/28 04:03:17;;;;;;;3.70;1.40;;;3.40;99.90;;;;;;5083374;28;20042;-78
2021/04/28 04:06:01;;;;;;;4.28;1.38;;;3.40;99.90;;;;;;5090549;28;20051;-79
2021/04/28 04:08:34;;;;;;;3.00;1.52;;;3.40;99.90;;;;;;5106733;28;20051;-79
2021/04/28 04:11:00;;;;;;;3.10;1.48;;;3.40;99.90;;;;;;5089759;28;20028;-78
2021/04/28 04:13:25;;;;;;;3.03;1.30;;;3.30;99.90;;;;;;5107703;28;20029;-78
2021/04/28 04:15:51;;;;;;;2.95;1.20;;;3.30;99.90;;;;;;5089712;28;20028;-78
2021/04/28 04:18:17;;;;;;;2.78;1.40;;;3.30;99.90;;;;;;5107353;28;20028;-80
2021/04/28 04:20:46;;;;;;;3.10;1.17;;;3.30;99.90;;;;;;5090046;28;20035;-79
2021/04/28 04:23:19;;;;;;;2.35;1.08;;;3.20;99.90;;;;;;5089504;28;20331;-79
2021/04/28 04:26:11;;;;;;;2.95;1.25;;;3.20;99.90;;;;;;5066626;28;20069;-79
2021/04/28 04:29:11;;;;;;;4.75;1.23;;;3.30;99.90;;;;;;5106691;28;20039;-78
2021/04/28 04:31:47;;;;;;;3.53;1.35;;;3.30;99.90;;;;;;5089962;28;20024;-78
2021/04/28 04:34:31;;;;;;;4.22;1.95;;;3.30;99.90;;;;;;5104712;28;20403;-77
2021/04/28 04:37:15;;;;;;;3.42;1.85;;;3.30;99.90;;;;;;5091236;28;20122;-77
2021/04/28 04:39:53;;;;;;;3.63;1.80;;;3.30;99.90;;;;;;5088553;28;20028;-78
2021/04/28 04:42:30;;;;;;;5.30;2.05;;;3.30;99.90;;;;;;5090362;28;20036;-79
2021/04/28 04:45:12;;;;;;;2.90;1.23;;;3.30;99.90;;;;;;5062586;28;20419;-79
2021/04/28 04:47:38;;;;;;;4.55;1.70;;;3.40;99.90;;;;;;5075892;28;20092;-77
2021/04/28 04:50:06;;;;;;;4.75;1.63;;;3.40;99.90;;;;;;5067695;28;20032;-78
2021/04/28 04:52:32;;;;;;;3.45;1.85;;;3.40;99.90;;;;;;5068275;28;20048;-78
2021/04/28 04:54:59;;;;;;;3.55;1.25;;;3.40;99.90;;;;;;5068396;28;20035;-78
2021/04/28 04:57:26;;;;;;;3.63;1.42;;;3.40;99.90;;;;;;5051150;28;20028;-77
2021/04/28 04:59:52;;;;;;;3.53;1.50;;;3.50;99.90;;;;;;5067792;28;20474;-78
2021/04/28 05:02:17;;;;;;;7.43;1.67;;;3.40;99.90;;;;;;5084227;28;20044;-77
2021/04/28 05:04:43;;;;;;;3.67;1.33;;;3.50;99.90;;;;;;5085333;28;20036;-77
2021/04/28 05:07:08;;;;;;;3.38;1.40;;;3.50;99.90;;;;;;5067181;28;20048;-77
2021/04/28 05:09:34;;;;;;;3.08;1.70;;;3.60;99.90;;;;;;5067694;28;20086;-77
2021/04/28 05:12:00;;;;;;;3.63;1.20;;;3.70;99.90;;;;;;5067536;28;20044;-77
2021/04/28 05:14:25;;;;;;;3.53;1.00;;;3.60;99.90;;;;;;5085564;28;20033;-77
2021/04/28 05:16:51;;;;;;;4.65;1.73;;;3.70;99.90;;;;;;5084261;28;20538;-78
2021/04/28 05:19:16;;;;;;;8.85;1.60;;;3.80;99.90;;;;;;5084985;28;20039;-78
2021/04/28 05:21:42;;;;;;;3.80;1.45;;;3.90;99.90;;;;;;5067370;28;20082;-77
2021/04/28 05:24:09;;;;;;;2.95;0.73;;;4.00;99.90;;;;;;5067199;28;20028;-78
2021/04/28 05:26:50;;;;;;;2.70;1.38;;;4.00;99.90;;;;;;5070857;28;20044;-78
2021/04/28 05:29:16;;;;;;;4.63;1.52;;;4.10;99.90;;;;;;5087308;28;20032;-77
2021/04/28 05:31:41;;;;;;;4.70;1.10;;;4.10;99.90;;;;;;5087345;28;20038;-78
2021/04/28 05:34:07;;;;;;;3.65;1.30;;;4.20;99.90;;;;;;5083492;28;20039;-78
2021/04/28 05:36:33;;;;;;;3.72;1.63;;;4.30;99.90;;;;;;5084858;28;20024;-78
2021/04/28 05:39:00;;;;;;;2.80;1.30;;;4.30;99.90;;;;;;5085008;28;20085;-78
2021/04/28 05:41:27;;;;;;;3.78;1.50;;;4.30;99.90;;;;;;5085082;28;20040;-78
2021/04/28 05:43:52;;;;;;;3.90;1.60;;;4.40;99.90;;;;;;5077877;28;20091;-78
2021/04/28 05:46:18;;;;;;;2.90;1.10;;;4.50;99.90;;;;;;5086356;28;20036;-78
2021/04/28 05:48:43;;;;;;;4.00;1.52;;;4.70;99.90;;;;;;5102607;28;20023;-77
2021/04/28 05:51:09;;;;;;;3.75;1.50;;;4.80;99.90;;;;;;5086844;28;20123;-78
2021/04/28 05:53:35;;;;;;;3.78;1.00;;;4.90;99.90;;;;;;5086815;28;20036;-78
2021/04/28 05:56:05;;;;;;;3.35;1.65;;;5.00;99.90;;;;;;5087071;28;20032;-78
2021/04/28 05:58:31;;;;;;;;;;;5.10;99.90;;;;;;5087247;28;20071;-78
2021/04/28 06:00:56;;;;;;;2.35;1.20;;;5.20;99.90;;;;;;5087131;28;19934;-78
2021/04/28 06:03:22;;;;;;;3.13;1.48;;;5.30;99.90;;;;;;5086607;28;20145;-78
2021/04/28 06:05:48;;;;;;;5.22;1.15;;;5.40;99.90;;;;;;5103520;28;20032;-78
2021/04/28 06:08:14;;;;;;;3.20;1.38;;;5.50;99.90;;;;;;5105124;28;20090;-78
2021/04/28 06:10:40;;;;;;;5.22;1.73;;;5.60;99.90;;;;;;5086915;28;20476;-78
2021/04/28 06:13:06;;;;;;;3.17;1.40;;;5.70;99.90;;;;;;5087092;28;20073;-78
2021/04/28 06:15:32;;;;;;;3.65;1.33;;;5.80;99.90;;;;;;5105396;28;20028;-78
2021/04/28 06:17:57;;;;;;;3.13;1.40;;;5.90;99.90;;;;;;5087007;28;20028;-77
2021/04/28 06:20:23;;;;;;;2.60;1.10;;;6.00;99.90;;;;;;5086845;28;20031;-78
2021/04/28 06:22:49;;;;;;;3.72;1.27;;;6.00;99.90;;;;;;5105094;28;20028;-78
2021/04/28 06:25:15;;;;;;;1.95;1.00;;;6.10;99.90;;;;;;5086876;28;20044;-78
2021/04/28 06:27:42;;;;;;;6.25;1.00;;;6.20;99.90;;;;;;5103780;28;20039;-79
2021/04/28 06:30:09;;;;;;;5.65;1.98;;;6.40;99.90;;;;;;5086780;28;20032;-79
2021/04/28 06:32:34;;;;;;;3.22;1.38;;;6.50;99.90;;;;;;5103481;28;20035;-79
2021/04/28 06:35:00;;;;;;;3.20;1.48;;;6.70;99.90;;;;;;5087032;28;20040;-79
2021/04/28 06:37:26;;;;;;;4.85;1.10;;;6.90;99.90;;;;;;5069808;28;20028;-79
2021/04/28 06:39:52;;;;;;;2.63;1.08;;;7.00;99.90;;;;;;5086766;28;20044;-79
2021/04/28 06:42:18;;;;;;;4.55;1.20;;;7.10;99.90;;;;;;5087006;28;20304;-79
2021/04/28 06:44:44;;;;;;;2.67;1.45;;;7.30;99.90;;;;;;5086524;28;20119;-79
2021/04/28 06:47:09;;;;;;;2.90;1.30;;;7.50;99.90;;;;;;5086775;28;20063;-79
2021/04/28 06:49:35;;;;;;;2.35;0.90;;;7.70;99.90;;;;;;5086704;28;20078;-79
2021/04/28 06:52:01;;;;;;;5.18;1.80;;;7.70;99.90;;;;;;5082467;28;20098;-80
2021/04/28 06:54:26;;;;;;;3.00;1.40;;;7.80;99.90;;;;;;5086615;28;20054;-80
2021/04/28 06:56:52;;;;;;;4.28;1.63;;;7.80;99.90;;;;;;5087029;28;20035;-79
2021/04/28 06:59:19;;;;;;;2.45;1.17;;;7.90;99.90;;;;;;5108508;28;20035;-80
2021/04/28 07:01:51;;;;;;;3.20;1.20;;;8.10;99.90;;;;;;5108685;28;20051;-79
2021/04/28 07:04:21;;;;;;;3.25;1.45;;;8.40;99.90;;;;;;5090242;28;20189;-80
2021/04/28 07:06:48;;;;;;;2.67;1.17;;;8.60;99.90;;;;;;5107638;28;20039;-79
2021/04/28 07:09:14;;;;;;;3.13;1.52;;;8.90;99.90;;;;;;5108014;28;20518;-79
2021/04/28 07:11:39;;;;;;;4.00;1.00;;;9.20;99.90;;;;;;5047176;28;20052;-78
2021/04/28 07:14:05;;;;;;;4.72;1.20;;;9.20;99.90;;;;;;5076858;28;20092;-79
2021/04/28 07:16:31;;;;;;;2.65;1.23;;;9.10;99.90;;;;;;5060984;28;20045;-79
2021/04/28 07:18:57;;;;;;;2.17;0.90;;;9.30;99.90;;;;;;5060484;28;20063;-80
2021/04/28 07:21:23;;;;;;;3.50;1.50;;;9.50;99.90;;;;;;5058207;28;20036;-80
2021/04/28 07:23:48;;;;;;;3.45;1.83;;;9.50;99.90;;;;;;5058873;28;20052;-80
2021/04/28 07:26:14;;;;;;;4.70;1.35;;;9.80;99.90;;;;;;5062309;28;20500;-80
2021/04/28 07:28:40;;;;;;;2.75;1.33;;;10.10;99.90;;;;;;5057336;28;20647;-79
2021/04/28 07:31:06;;;;;;;3.08;1.58;;;10.10;99.90;;;;;;5060741;28;20111;-80
2021/04/28 07:33:32;;;;;;;4.65;1.75;;;10.10;99.90;;;;;;5053710;28;20057;-80
2021/04/28 07:35:58;;;;;;;2.50;0.93;;;10.10;99.90;;;;;;5056312;28;20040;-80
2021/04/28 07:38:24;;;;;;;4.07;2.25;;;10.60;99.90;;;;;;5079931;28;20058;-79
2021/04/28 07:40:50;;;;;;;2.88;1.25;;;10.60;99.90;;;;;;5075038;28;20040;-79
2021/04/28 07:43:15;;;;;;;5.63;2.53;;;11.20;99.90;;;;;;5062304;28;20024;-80
2021/04/28 07:45:41;;;;;;;3.28;1.98;;;11.10;99.90;;;;;;5067977;28;20048;-80
2021/04/28 07:48:09;;;;;;;2.80;1.48;;;11.60;99.70;;;;;;5060498;28;20465;-79
2021/04/28 07:50:36;;;;;;;2.58;1.20;;;11.90;98.30;;;;;;5073467;28;20036;-79
2021/04/28 07:53:03;;;;;;;3.95;1.77;;;11.90;96.30;;;;;;5064337;28;20028;-80
2021/04/28 07:55:29;;;;;;;2.80;1.30;;;11.60;98.80;;;;;;5048352;28;20044;-80
2021/04/28 07:57:56;;;;;;;2.67;1.17;;;11.80;98.40;;;;;;5059113;28;20037;-80
2021/04/28 08:00:22;;;;;;;5.75;1.92;;;11.70;98.00;;;;;;5060409;28;20028;-80
2021/04/28 08:02:48;;;;;;;3.00;2.00;;;11.40;97.90;;;;;;5064060;28;20515;-79
2021/04/28 08:05:14;;;;;;;4.93;2.15;;;11.40;98.00;;;;;;5055572;28;20045;-80
2021/04/28 08:07:39;;;;;;;3.42;1.50;;;11.70;99.10;;;;;;5057300;28;20042;-79
2021/04/28 08:10:06;;;;;;;4.88;1.58;;;12.00;96.70;;;;;;5059809;28;20041;-80
2021/04/28 08:12:33;;;;;;;3.58;2.53;;;12.10;97.30;;;;;;5079210;28;20053;-80
2021/04/28 08:14:59;;;;;;;3.75;2.47;;;11.70;96.50;;;;;;5077723;28;20029;-80
2021/04/28 08:17:25;;;;;;;3.88;1.67;;;11.80;97.30;;;;;;5074395;28;20067;-80
2021/04/28 08:19:51;;;;;;;5.47;1.67;;;12.30;96.60;;;;;;5075493;28;20024;-79
2021/04/28 08:22:16;;;;;;;3.25;1.55;;;12.80;95.50;;;;;;5073043;28;20032;-80
2021/04/28 08:24:42;;;;;;;2.78;1.10;;;12.70;95.20;;;;;;5065105;28;20037;-80
2021/04/28 08:27:08;;;;;;;3.22;1.65;;;12.70;95.90;;;;;;5064480;28;20037;-80
2021/04/28 08:29:33;;;;;;;6.03;1.42;;;12.70;95.70;;;;;;5042770;28;20033;-79
2021/04/28 08:31:59;;;;;;;2.25;1.25;;;13.10;95.00;;;;;;5066260;28;20029;-78
2021/04/28 08:34:25;;;;;;;3.10;1.30;;;13.10;94.70;;;;;;5071522;28;20043;-79
2021/04/28 08:36:50;;;;;;;2.53;1.20;;;13.20;94.40;;;;;;5064536;28;20040;-79
2021/04/28 08:39:16;;;;;;;5.57;1.35;;;13.30;94.50;;;;;;5066153;28;20061;-79
2021/04/28 08:41:42;;;;;;;2.85;1.58;;;13.50;94.20;;;;;;5064881;28;20033;-78
2021/04/28 08:44:08;;;;;;;4.38;1.75;;;13.70;94.30;;;;;;5077475;28;20028;-79
2021/04/28 08:46:37;;;;;;;3.53;1.83;;;14.10;93.50;;;;;;5084658;28;20043;-79
2021/04/28 08:49:06;;;;;;;3.13;1.92;;;14.00;92.90;;;;;;5101731;28;20035;-79
2021/04/28 08:51:37;;;;;;;3.53;1.88;;;14.00;92.20;;;;;;5084838;28;20491;-79
2021/04/28 08:54:04;;;;;;;3.30;1.58;;;14.40;91.90;;;;;;5102067;28;20033;-79
2021/04/28 08:56:30;;;;;;;3.88;2.15;;;14.50;91.50;;;;;;5101552;28;20063;-79
2021/04/28 08:58:58;;;;;;;5.65;1.98;;;14.30;91.80;;;;;;5084640;28;20024;-79
2021/04/28 09:01:32;;;;;;;4.53;1.60;;;14.10;91.60;;;;;;5101488;28;20044;-79
2021/04/28 09:03:59;;;;;;;2.97;1.73;;;14.40;91.90;;;;;;5101383;28;20042;-79
2021/04/28 09:06:31;;;;;;;4.38;1.40;;;14.50;91.60;;;;;;5093153;22;21634;-79
2021/04/28 09:09:05;;;;;;;2.97;1.67;;;14.60;91.20;;;;;;5071472;28;20061;-80
2021/04/28 09:11:38;;;;;;;4.90;1.25;;;14.70;90.50;;;;;;5088051;28;20044;-79
2021/04/28 09:14:15;;;;;;;2.78;1.45;;;14.80;90.50;;;;;;5106422;28;20024;-79
2021/04/28 09:16:44;;;;;;;6.22;2.78;;;15.00;90.60;;;;;;5106384;28;20032;-80
2021/04/28 09:19:46;;;;;;;7.35;2.38;;;14.90;89.90;;;;;;5088297;28;20033;-79
2021/04/28 09:23:11;;;;;;;4.50;1.73;;;15.30;89.70;;;;;;5051858;28;20137;-79
2021/04/28 09:25:57;;;;;;;6.03;1.40;;;15.70;87.80;;;;;;5090658;28;20055;-79
2021/04/28 09:28:38;;;;;;;3.92;2.00;;;15.90;86.40;;;;;;5106109;28;20440;-79
2021/04/28 09:31:06;;;;;;;2.80;1.73;;;15.80;85.80;;;;;;5071660;28;20459;-79
2021/04/28 09:33:41;;;;;;;3.30;1.98;;;15.80;84.40;;;;;;5106081;28;20032;-79
2021/04/28 09:36:11;;;;;;;4.45;2.63;;;15.80;85.40;;;;;;5105941;28;20036;-79
2021/04/28 09:38:53;;;;;;;4.05;1.73;;;15.80;85.80;;;;;;5105836;28;20036;-79
2021/04/28 09:41:37;;;;;;;4.65;2.03;;;15.90;84.10;;;;;;5087605;28;20032;-79
2021/04/28 09:44:18;;;;;;;2.78;1.60;;;16.20;82.50;;;;;;5082656;28;20032;-79
2021/04/28 09:47:16;;;;;;;3.85;1.88;;;16.30;82.50;;;;;;5085935;28;20071;-80
2021/04/28 09:49:46;;;;;;;4.22;2.30;;;16.40;82.00;;;;;;5085309;28;20028;-79
2021/04/28 09:52:13;;;;;;;;;;;16.60;81.10;;;;;;5067390;28;20054;-79
2021/04/28 09:54:40;;;;;;;3.85;1.88;;;16.60;80.70;;;;;;5067227;28;19908;-80
2021/04/28 09:57:06;;;;;;;6.35;2.05;;;16.70;82.00;;;;;;5066875;28;20028;-79
2021/04/28 09:59:51;;;;;;;3.85;2.67;;;17.10;81.20;;;;;;5084995;28;20434;-80
2021/04/28 10:02:30;;;;;;;4.47;2.35;;;17.00;79.30;;;;;;5067133;28;20088;-79
2021/04/28 10:05:21;;;;;;;3.42;1.95;;;17.00;78.90;;;;;;5050420;28;20051;-79
2021/04/28 10:07:49;;;;;;;5.15;2.35;;;17.20;78.20;;;;;;5046961;28;20048;-80
2021/04/28 10:10:16;;;;;;;3.72;2.20;;;17.50;79.30;;;;;;5065286;28;20119;-80
2021/04/28 10:12:42;;;;;;;3.38;2.30;;;17.60;78.80;;;;;;5065383;28;20047;-80
2021/04/28 10:15:08;;;;;;;3.38;2.15;;;17.60;76.50;;;;;;5063744;28;20036;-80
2021/04/28 10:17:35;;;;;;;3.05;2.20;;;17.50;76.40;;;;;;5063276;28;20028;-80
2021/04/28 10:20:03;;;;;;;3.17;1.73;;;17.50;77.60;;;;;;5064638;28;20030;-80
2021/04/28 10:22:29;;;;;;;5.82;3.42;;;17.70;78.20;;;;;;5064839;28;20052;-80
2021/04/28 10:24:57;;;;;;;7.15;3.78;;;17.60;76.10;;;;;;5063874;28;20041;-80
2021/04/28 10:27:23;;;;;;;3.90;2.55;;;17.70;76.10;;;;;;5063615;28;20087;-80
2021/04/28 10:29:51;;;;;;;3.40;2.47;;;18.00;76.50;;;;;;5063286;28;20043;-80
2021/04/28 10:32:19;;;;;;;3.80;2.72;;;17.80;73.60;;;;;;5066015;28;20128;-80
2021/04/28 10:34:49;;;;;;;2.83;1.92;;;18.10;75.50;;;;;;5081582;28;20526;-80
2021/04/28 10:37:16;;;;;;;4.93;2.63;;;18.00;74.80;;;;;;5070433;28;20487;-80
2021/04/28 10:39:47;;;;;;;5.05;2.42;;;17.90;75.70;;;;;;5087416;28;20058;-80
2021/04/28 10:42:36;;;;;;;3.60;2.45;;;18.00;74.50;;;;;;5088596;28;20047;-80
2021/04/28 10:45:05;;;;;;;3.15;2.33;;;18.10;74.00;;;;;;5068370;28;20029;-80
2021/04/28 10:47:41;;;;;;;3.65;2.38;;;18.00;75.30;;;;;;5050454;28;20063;-80
2021/04/28 10:50:33;;;;;;;6.85;4.15;;;18.10;74.40;;;;;;5033801;28;20033;-80
2021/04/28 10:53:01;;;;;;;5.00;3.17;;;17.80;76.10;;;;;;5068374;28;20120;-80
2021/04/28 10:55:42;;;;;;;4.32;3.13;;;18.10;75.10;;;;;;5050167;28;20044;-80
2021/04/28 10:58:23;;;;;;;5.38;4.38;;;18.40;72.90;;;;;;5050155;28;20101;-80
2021/04/28 11:00:49;;;;;;;5.45;3.38;;;18.20;74.10;;;;;;5050269;28;20076;-80
2021/04/28 11:03:49;;;;;;;4.13;3.00;;;18.70;74.00;;;;;;5068611;28;20025;-79
2021/04/28 11:06:25;;;;;;;4.18;2.40;;;19.20;74.20;;;;;;5028668;28;20052;-79
2021/04/28 11:08:53;;;;;;;4.38;2.58;;;19.50;72.00;;;;;;5087959;28;20028;-80
2021/04/28 11:11:35;;;;;;;3.88;1.98;;;19.50;70.90;;;;;;5070220;28;20099;-80
2021/04/28 11:16:53;;;;;;;4.30;3.63;;;19.50;71.00;;;;;;5087877;28;20063;-80
2021/04/28 11:19:35;;;;;;;3.35;2.45;;;19.30;71.30;;;;;;5053281;28;20536;-80
2021/04/28 11:22:25;;;;;;;5.13;3.30;;;19.30;69.40;;;;;;5087815;28;20104;-80
2021/04/28 11:24:58;;;;;;;4.72;2.55;;;18.70;68.40;;;;;;5075773;28;20048;-79
2021/04/28 11:27:56;;;;;;;5.82;3.03;;;18.80;70.40;;;;;;5069703;28;20033;-79
2021/04/28 11:30:26;;;;;;;8.27;3.75;;;18.90;69.60;;;;;;5069514;28;20051;-79
2021/04/28 11:33:11;;;;;;;;;;;18.60;69.40;;;;;;5053594;28;20472;-80
2021/04/28 11:35:44;;;;;;;5.38;2.55;;;18.80;70.60;;;;;;5069381;28;20077;-79
2021/04/28 11:38:14;;;;;;;4.38;2.53;;;19.00;68.50;;;;;;5069665;28;20025;-80
2021/04/28 11:40:51;;;;;;;5.30;3.03;;;19.30;69.70;;;;;;5069672;28;20032;-79
2021/04/28 11:43:25;;;;;;;4.57;3.28;;;19.40;67.60;;;;;;5075288;28;20036;-80
2021/04/28 11:45:52;;;;;;;5.07;2.95;;;19.80;66.50;;;;;;5089636;28;20525;-80
2021/04/28 11:48:25;;;;;;;5.80;2.92;;;20.00;66.60;;;;;;5089922;28;20035;-80
2021/04/28 11:50:56;;;;;;;7.07;2.55;;;20.10;69.00;;;;;;5089864;28;20032;-79
2021/04/28 11:53:24;;;;;;;4.13;3.10;;;20.10;65.90;;;;;;5072679;28;20058;-80
2021/04/28 11:55:50;;;;;;;4.50;2.30;;;20.10;67.90;;;;;;5089234;28;20049;-80
2021/04/28 11:58:22;;;;;;;3.97;2.03;;;19.90;66.20;;;;;;5072265;28;20096;-80
2021/04/28 12:00:49;;;;;;;7.45;3.05;;;19.90;66.20;;;;;;5072642;28;20028;-81
2021/04/28 12:03:14;;;;;;;7.40;3.33;;;19.80;66.10;;;;;;5072483;28;20029;-82
2021/04/28 12:09:48;;;;;;;4.43;2.40;;;20.10;66.30;;;;;;5003451;28;20097;-81
2021/04/28 12:12:21;;;;;;;4.13;2.20;;;20.20;64.50;;;;;;4988870;28;20043;-81
2021/04/28 12:14:51;;;;;;;5.78;2.58;;;20.40;64.00;;;;;;4988910;28;20053;-81
2021/04/28 12:17:24;;;;;;;8.60;2.72;;;20.50;64.60;;;;;;4988665;28;20057;-81
2021/04/28 12:19:54;;;;;;;5.00;3.40;;;20.70;64.80;;;;;;4988920;28;20054;-80
2021/04/28 12:22:20;;;;;;;4.55;2.85;;;20.70;64.10;;;;;;5004888;28;20038;-82
2021/04/28 12:24:48;;;;;;;5.38;3.63;;;21.00;64.00;;;;;;5004894;28;20038;-81
2021/04/28 12:27:23;;;;;;;3.90;3.17;;;21.20;64.40;;;;;;4988362;28;20038;-81
2021/04/28 12:29:54;;;;;;;4.25;2.03;;;21.30;62.70;;;;;;4988526;28;20038;-82
2021/04/28 12:32:28;;;;;;;4.78;3.00;;;21.20;63.10;;;;;;5004859;28;20042;-81
2021/04/28 12:35:10;;;;;;;5.57;2.55;;;21.20;60.80;;;;;;5007998;28;20065;-81
2021/04/28 12:37:36;;;;;;;3.55;2.83;;;21.50;63.00;;;;;;4991278;28;20034;-80
2021/04/28 12:40:04;;;;;;;4.45;3.17;;;21.60;58.90;;;;;;5007912;28;20038;-81
2021/04/28 12:42:38;;;;;;;5.03;2.92;;;20.90;60.70;;;;;;5007702;28;20030;-81
2021/04/28 12:45:13;;;;;;;4.15;2.97;;;20.50;60.20;;;;;;5009556;28;20044;-81
2021/04/28 12:47:40;;;;;;;7.60;5.63;;;20.00;59.40;;;;;;5064936;28;20052;-80
2021/04/28 12:50:24;;;;;;;5.20;3.28;;;19.60;61.30;;;;;;5065029;28;20037;-80
2021/04/28 12:52:50;;;;;;;6.05;3.85;;;20.10;62.30;;;;;;5031872;28;20036;-80
2021/04/28 12:55:56;;;;;;;3.60;2.50;;;20.40;56.90;;;;;;5047521;28;20170;-81
2021/04/28 12:58:23;;;;;;;3.13;2.38;;;20.90;58.30;;;;;;5037339;28;20063;-81
2021/04/28 13:00:54;;;;;;;8.85;3.38;;;20.90;56.80;;;;;;5064595;28;20082;-80
2021/04/28 13:03:23;;;;;;;6.45;3.83;;;21.20;58.90;;;;;;5064618;28;20029;-81
2021/04/28 13:06:00;;;;;;;5.32;3.22;;;20.70;59.30;;;;;;5063708;28;20071;-80
2021/04/28 13:08:34;;;;;;;4.47;1.95;;;20.90;59.50;;;;;;5052474;28;20112;-80
2021/04/28 13:11:06;;;;;;;3.13;1.88;;;21.30;56.70;;;;;;5087830;28;20032;-80
2021/04/28 13:13:33;;;;;;;2.65;1.27;;;21.40;55.90;;;;;;5055972;28;20046;-81
2021/04/28 13:16:00;;;;;;;3.65;1.88;;;21.40;56.70;;;;;;5068101;28;20028;-81